Home   Weather   USA   Atlanta   Past weeks
Flag for USA

Past Weather in Atlanta, Georgia, USA — February 2018

Currently: 36 °F. Overcast. (Weather station: Fulton County Airport-Brown Field, USA). See more current weather

February 2018 Weather in Atlanta — Graph

°F

High & Low Weather Summary for February 2018

 TemperatureHumidityPressure
High80 °F (Feb 22, 3:53 pm)100% (Feb 4, 6:53 am)30.61 "Hg (Feb 4, 6:53 am)
Low30 °F (Feb 3, 5:53 am)24% (Feb 2, 2:53 pm)29.87 "Hg (Feb 4, 2:53 pm)
Average57 °F82%30.22 "Hg
* Reported Feb 1 12:53 am — Feb 28 11:53 pm, Atlanta. Weather by CustomWeather, © 2022

Note: Actual official high and low records may vary slightly from our data, if they occured in-between our weather recording intervals... More about our weather records

Atlanta Weather History for February 1, 2018

Scroll right to see more
 ConditionsComfort  
Time TempWeatherWind HumidityBarometerVisibility
12:53 am
Thu, Feb 1
34 °FClear.No wind73%30.18 "Hg10 mi
1:53 am35 °FClear.No wind70%30.18 "Hg10 mi
2:53 am36 °FPassing clouds.No wind70%30.18 "Hg10 mi
3:53 am36 °FOvercast.No wind79%30.18 "Hg10 mi
4:53 am37 °FPassing clouds.No wind79%30.17 "Hg10 mi
5:53 am39 °FOvercast.No wind73%30.16 "Hg10 mi
6:53 am40 °FOvercast.No wind73%30.17 "Hg10 mi
7:53 am45 °FMore clouds than sun.5 mph58%30.15 "Hg10 mi
8:53 am45 °FMostly cloudy.3 mph60%30.17 "Hg10 mi
9:53 am47 °FCloudy.3 mph61%30.18 "Hg10 mi
10:53 am52 °FMore clouds than sun.6 mph61%30.18 "Hg10 mi
11:53 am56 °FMore clouds than sun.10 mph67%30.16 "Hg10 mi
12:53 pm61 °FBroken clouds.15 mph62%30.11 "Hg10 mi
1:53 pm62 °FMore clouds than sun.12 mph60%30.07 "Hg10 mi
2:53 pm63 °FOvercast.9 mph58%30.06 "Hg10 mi
3:53 pm63 °FOvercast.10 mph58%30.06 "Hg10 mi
4:53 pm63 °FOvercast.10 mph60%30.06 "Hg10 mi
5:53 pm62 °FMostly cloudy.9 mph65%30.06 "Hg10 mi
6:53 pm61 °FPassing clouds.7 mph67%30.06 "Hg10 mi
7:53 pm59 °FPassing clouds.12 mph75%30.03 "Hg10 mi
8:53 pm58 °FPassing clouds.8 mph81%30.04 "Hg10 mi
9:53 pm58 °FPassing clouds.10 mph81%30.03 "Hg10 mi
10:53 pm58 °FLight rain. Mostly cloudy.13 mph87%30.01 "Hg10 mi
11:18 pm46 °FHeavy rain. Fog.16 mph96%30.08 "Hg3 mi
11:31 pm46 °FLight rain. Mostly cloudy.9 mph96%30.10 "Hg10 mi
11:53 pm45 °FLight rain. Mostly cloudy.9 mph93%30.11 "Hg10 mi
Weather by CustomWeather, © 2022

See weather overview